Time;durP1;ratioP1;P1;durP2;ratioP2;P2;SDS_P1;SDS_P2;PMS_P1;PMS_P2;Temp;Humidity;BMP_temperature;BMP_pressure;BME280_temperature;BME280_humidity;BME280_pressure;Samples;Min_cycle;Max_cycle;Signal;HPM_P1;HPM_P2
2022/06/25 00:01:12;;;;;;;;;;;14.70;99.90;;;;;;5036651;28;19921;-74
2022/06/25 00:03:40;;;;;;;;;;;14.60;99.90;;;;;;5037715;28;19921;-74
2022/06/25 00:06:08;;;;;;;;;;;14.60;99.90;;;;;;5037680;28;19932;-74
2022/06/25 00:08:36;;;;;;;;;;;14.50;99.90;;;;;;5037303;28;19932;-73
2022/06/25 00:11:05;;;;;;;;;;;14.40;99.90;;;;;;5037342;28;19925;-73
2022/06/25 00:13:33;;;;;;;;;;;14.40;99.90;;;;;;5035386;28;19928;-73
2022/06/25 00:16:01;;;;;;;;;;;14.30;99.90;;;;;;5037387;28;19921;-74
2022/06/25 00:18:28;;;;;;;;;;;14.30;99.90;;;;;;5036690;28;20256;-74
2022/06/25 00:20:55;;;;;;;;;;;14.20;99.90;;;;;;5036368;28;19932;-74
2022/06/25 00:23:23;;;;;;;;;;;14.20;99.90;;;;;;5036788;28;19932;-72
2022/06/25 00:25:50;;;;;;;;;;;14.10;99.90;;;;;;5037204;28;19928;-73
2022/06/25 00:28:18;;;;;;;;;;;14.20;99.90;;;;;;5036069;28;19928;-74
2022/06/25 00:30:45;;;;;;;;;;;14.10;99.90;;;;;;5037116;28;20023;-74
2022/06/25 00:33:12;;;;;;;;;;;14.00;99.90;;;;;;5036547;28;20348;-74
2022/06/25 00:35:40;;;;;;;;;;;13.90;99.90;;;;;;5037146;28;19921;-73
2022/06/25 00:38:07;;;;;;;;;;;13.80;99.90;;;;;;5037147;28;19928;-74
2022/06/25 00:40:34;;;;;;;;;;;13.80;99.90;;;;;;5035831;28;19921;-74
2022/06/25 00:43:02;;;;;;;;;;;13.80;99.90;;;;;;5037124;28;19921;-74
2022/06/25 00:45:29;;;;;;;;;;;13.80;99.90;;;;;;5035208;28;19932;-74
2022/06/25 00:47:56;;;;;;;;;;;13.70;99.90;;;;;;5034965;28;19925;-74
2022/06/25 00:50:24;;;;;;;;;;;13.70;99.90;;;;;;5036934;28;19921;-74
2022/06/25 00:52:52;;;;;;;;;;;13.70;99.90;;;;;;5035950;28;19920;-75
2022/06/25 00:55:20;;;;;;;;;;;13.60;99.90;;;;;;5036802;28;20343;-73
2022/06/25 00:57:49;;;;;;;;;;;13.60;99.90;;;;;;5035662;28;20382;-73
2022/06/25 01:00:17;;;;;;;;;;;13.60;99.90;;;;;;5035955;28;20363;-74
2022/06/25 01:02:47;;;;;;;;;;;13.60;99.90;;;;;;5035799;28;19925;-74
2022/06/25 01:05:15;;;;;;;;;;;13.60;99.90;;;;;;5035784;28;19928;-74
2022/06/25 01:07:48;;;;;;;;;;;13.50;99.90;;;;;;5035367;28;19921;-74
2022/06/25 01:10:16;;;;;;;;;;;13.50;99.90;;;;;;5036632;28;19921;-73
2022/06/25 01:12:44;;;;;;;;;;;13.60;99.90;;;;;;5032036;28;19922;-74
2022/06/25 01:15:16;;;;;;;;;;;13.60;99.90;;;;;;4998488;28;20267;-73
2022/06/25 01:17:48;;;;;;;;;;;13.50;99.90;;;;;;4999710;28;19922;-73
2022/06/25 01:20:17;;;;;;;;;;;13.60;99.90;;;;;;4998302;28;20012;-74
2022/06/25 01:22:45;;;;;;;;;;;13.60;99.90;;;;;;5016497;28;19928;-74
2022/06/25 01:25:13;;;;;;;;;;;13.50;99.90;;;;;;4999336;28;19921;-74
2022/06/25 01:27:41;;;;;;;;;;;13.60;99.90;;;;;;5015445;28;19928;-75
2022/06/25 01:30:09;;;;;;;;;;;13.50;99.90;;;;;;4999486;28;19921;-74
2022/06/25 01:32:37;;;;;;;;;;;13.50;99.90;;;;;;4998876;28;19936;-74
2022/06/25 01:35:04;;;;;;;;;;;13.60;99.90;;;;;;5015158;28;19936;-74
2022/06/25 01:37:34;;;;;;;;;;;13.40;99.90;;;;;;4998867;28;19928;-74
2022/06/25 01:40:03;;;;;;;;;;;13.40;99.90;;;;;;4998058;28;20270;-73
2022/06/25 01:45:16;;;;;;;;;;;13.40;99.90;;;;;;4998754;28;20383;-74
2022/06/25 01:47:44;;;;;;;;;;;13.30;99.90;;;;;;5014899;28;19928;-74
2022/06/25 01:50:11;;;;;;;;;;;13.30;99.90;;;;;;5015965;28;20263;-74
2022/06/25 01:52:40;;;;;;;;;;;13.30;99.90;;;;;;4998911;28;19921;-74
2022/06/25 01:55:08;;;;;;;;;;;13.20;99.90;;;;;;5014728;28;19929;-74
2022/06/25 01:57:39;;;;;;;;;;;13.20;99.90;;;;;;4998732;28;19921;-74
2022/06/25 02:00:10;;;;;;;;;;;13.10;99.90;;;;;;4997511;28;19929;-74
2022/06/25 02:02:45;;;;;;;;;;;13.10;99.90;;;;;;4998717;28;20245;-73
2022/06/25 02:05:13;;;;;;;;;;;13.10;99.90;;;;;;4998492;28;19921;-74
2022/06/25 02:07:41;;;;;;;;;;;13.10;99.90;;;;;;5014540;28;20284;-73
2022/06/25 02:10:08;;;;;;;;;;;13.10;99.90;;;;;;5015588;28;19928;-74
2022/06/25 02:12:36;;;;;;;;;;;13.10;99.90;;;;;;5015523;28;19921;-74
2022/06/25 02:15:05;;;;;;;;;;;13.10;99.90;;;;;;4997534;28;20340;-74
2022/06/25 02:17:32;;;;;;;;;;;13.20;99.90;;;;;;4998546;28;19929;-74
2022/06/25 02:20:00;;;;;;;;;;;13.10;99.90;;;;;;4997270;28;19921;-74
2022/06/25 02:22:30;;;;;;;;;;;13.10;99.90;;;;;;5015456;28;19921;-73
2022/06/25 02:24:57;;;;;;;;;;;13.10;99.90;;;;;;5015312;28;20271;-74
2022/06/25 02:27:25;;;;;;;;;;;13.10;99.90;;;;;;4997248;28;19922;-74
2022/06/25 02:29:52;;;;;;;;;;;13.10;99.90;;;;;;5015310;28;19921;-74
2022/06/25 02:32:20;;;;;;;;;;;13.10;99.90;;;;;;4998310;28;19921;-73
2022/06/25 02:34:47;;;;;;;;;;;13.00;99.90;;;;;;5014316;28;20356;-74
2022/06/25 02:37:16;;;;;;;;;;;13.00;99.90;;;;;;4998027;28;19921;-73
2022/06/25 02:39:43;;;;;;;;;;;13.00;99.90;;;;;;5015000;28;19928;-74
2022/06/25 02:42:11;;;;;;;;;;;13.00;99.90;;;;;;5015289;28;19928;-73
2022/06/25 02:44:38;;;;;;;;;;;13.00;99.90;;;;;;4998364;28;19929;-74
2022/06/25 02:47:06;;;;;;;;;;;13.00;99.90;;;;;;4996816;28;19921;-74
2022/06/25 02:49:51;;;;;;;;;;;13.00;99.90;;;;;;4997941;28;19921;-74
2022/06/25 02:52:19;;;;;;;;;;;12.80;99.90;;;;;;4998542;28;19928;-74
2022/06/25 02:54:46;;;;;;;;;;;12.90;99.90;;;;;;4997034;28;19928;-73
2022/06/25 03:00:03;;;;;;;;;;;13.00;99.90;;;;;;5014021;28;19921;-74
2022/06/25 03:02:31;;;;;;;;;;;13.10;99.90;;;;;;4997933;28;19928;-74
2022/06/25 03:04:59;;;;;;;;;;;13.20;99.90;;;;;;4997823;28;19929;-74
2022/06/25 03:07:27;;;;;;;;;;;13.20;99.90;;;;;;4981695;28;20364;-74
2022/06/25 03:09:54;;;;;;;;;;;13.20;99.90;;;;;;5001764;28;20268;-74
2022/06/25 03:12:22;;;;;;;;;;;13.10;99.90;;;;;;5001694;28;19921;-74
2022/06/25 03:14:58;;;;;;;;;;;13.10;99.90;;;;;;5000466;28;19929;-74
2022/06/25 03:17:26;;;;;;;;;;;13.10;99.90;;;;;;5001570;28;19921;-74
2022/06/25 03:20:11;;;;;;;;;;;13.00;99.90;;;;;;5003160;28;19921;-74
2022/06/25 03:22:47;;;;;;;;;;;12.90;99.90;;;;;;5001777;28;20256;-74
2022/06/25 03:25:15;;;;;;;;;;;12.90;99.90;;;;;;5019159;28;19929;-74
2022/06/25 03:27:43;;;;;;;;;;;12.90;99.90;;;;;;5017478;28;20371;-74
2022/06/25 03:30:14;;;;;;;;;;;12.80;99.90;;;;;;5001876;28;19928;-74
2022/06/25 03:32:42;;;;;;;;;;;12.80;99.90;;;;;;5001681;28;19922;-74
2022/06/25 03:35:27;;;;;;;;;;;12.70;99.90;;;;;;5001288;28;19925;-74
2022/06/25 03:38:15;;;;;;;;;;;12.70;99.90;;;;;;5018013;28;19929;-74
2022/06/25 03:40:43;;;;;;;;;;;12.60;99.90;;;;;;5000149;28;19921;-74
2022/06/25 03:43:14;;;;;;;;;;;12.60;99.90;;;;;;5001671;28;19921;-74
2022/06/25 03:45:43;;;;;;;;;;;12.60;99.90;;;;;;5001123;28;19921;-74
2022/06/25 03:48:11;;;;;;;;;;;12.60;99.90;;;;;;4983955;28;19921;-74
2022/06/25 03:50:58;;;;;;;;;;;12.50;99.90;;;;;;5004607;28;19932;-73
2022/06/25 03:53:26;;;;;;;;;;;12.50;99.90;;;;;;5000049;28;19921;-74
2022/06/25 03:55:53;;;;;;;;;;;12.50;99.90;;;;;;5018221;28;19928;-74
2022/06/25 03:58:26;;;;;;;;;;;12.50;99.90;;;;;;4984720;28;19921;-74
2022/06/25 04:00:55;;;;;;;;;;;12.50;99.90;;;;;;4999702;28;20221;-74
2022/06/25 04:03:22;;;;;;;;;;;12.50;99.90;;;;;;5018299;28;19936;-73
2022/06/25 04:06:02;;;;;;;;;;;12.40;99.90;;;;;;4984868;28;19944;-74
2022/06/25 04:08:41;;;;;;;;;;;12.40;99.90;;;;;;5001089;28;19921;-74
2022/06/25 04:11:13;;;;;;;;;;;12.50;99.90;;;;;;5000502;28;19921;-73
2022/06/25 04:13:45;;;;;;;;;;;11.10;99.90;;;;;;5021496;28;19928;-74
2022/06/25 04:16:13;;;;;;;;;;;12.40;99.90;;;;;;5036582;28;19921;-74
2022/06/25 04:18:41;;;;;;;;;;;12.40;99.90;;;;;;5035647;28;19921;-74
2022/06/25 04:21:10;;;;;;;;;;;12.50;99.90;;;;;;5035418;28;20272;-74
2022/06/25 04:23:37;;;;;;;;;;;12.50;99.90;;;;;;5037363;28;19921;-75
2022/06/25 04:26:07;;;;;;;;;;;12.50;99.90;;;;;;5020644;28;19921;-74
2022/06/25 04:31:49;;;;;;;;;;;12.50;99.90;;;;;;5019403;28;19921;-74
2022/06/25 04:34:37;;;;;;;;;;;12.60;99.90;;;;;;5035946;28;19928;-73
2022/06/25 04:37:04;;;;;;;;;;;12.60;99.90;;;;;;5036632;28;20275;-74
2022/06/25 04:39:32;;;;;;;;;;;12.60;99.90;;;;;;5035218;28;19921;-74
2022/06/25 04:42:00;;;;;;;;;;;12.70;99.90;;;;;;5037069;28;19921;-75
2022/06/25 04:44:30;;;;;;;;;;;12.60;99.90;;;;;;5036178;28;19921;-75
2022/06/25 04:46:58;;;;;;;;;;;12.60;99.90;;;;;;5034949;28;19925;-74
2022/06/25 04:49:39;;;;;;;;;;;12.60;99.90;;;;;;5036051;28;19928;-76
2022/06/25 04:52:09;;;;;;;;;;;12.60;99.90;;;;;;5036200;28;19925;-74
2022/06/25 04:54:36;;;;;;;;;;;12.60;99.90;;;;;;5034949;28;19921;-75
2022/06/25 04:57:15;;;;;;;;;;;12.60;99.90;;;;;;5021546;28;20275;-74
2022/06/25 05:00:01;;;;;;;;;;;12.60;99.90;;;;;;5035701;28;19940;-75
2022/06/25 05:02:34;;;;;;;;;;;12.60;99.90;;;;;;5036233;28;19932;-75
2022/06/25 05:05:08;;;;;;;;;;;12.60;99.90;;;;;;5019434;28;19936;-75
2022/06/25 05:07:36;;;;;;;;;;;12.60;99.90;;;;;;5018076;28;19928;-75
2022/06/25 05:10:04;;;;;;;;;;;12.70;99.90;;;;;;5035621;28;19944;-75
2022/06/25 05:15:17;;;;;;;;;;;12.70;99.90;;;;;;4999742;28;19928;-74
2022/06/25 05:17:46;;;;;;;;;;;12.70;99.90;;;;;;4999312;28;19921;-75
2022/06/25 05:20:17;;;;;;;;;;;12.70;99.90;;;;;;4982725;28;19921;-74
2022/06/25 05:22:44;;;;;;;;;;;12.70;99.90;;;;;;4999674;28;19922;-75
2022/06/25 05:25:12;;;;;;;;;;;12.80;99.90;;;;;;4999536;28;19921;-75
2022/06/25 05:27:40;;;;;;;;;;;12.80;99.90;;;;;;4998164;28;19936;-75
2022/06/25 05:30:08;;;;;;;;;;;12.90;99.90;;;;;;4998818;28;19929;-74
2022/06/25 05:32:35;;;;;;;;;;;12.90;99.90;;;;;;5016169;28;19925;-75
2022/06/25 05:35:04;;;;;;;;;;;13.00;99.90;;;;;;5015023;28;19921;-75
2022/06/25 05:37:31;;;;;;;;;;;12.90;99.90;;;;;;5016286;28;19929;-75
2022/06/25 05:39:59;;;;;;;;;;;13.00;99.90;;;;;;5015029;28;19933;-74
2022/06/25 05:42:26;;;;;;;;;;;13.00;99.90;;;;;;4999190;28;19922;-75
2022/06/25 05:44:54;;;;;;;;;;;13.10;99.90;;;;;;5016164;28;19921;-75
2022/06/25 05:47:21;;;;;;;;;;;13.10;99.90;;;;;;4998269;28;19923;-75
2022/06/25 05:49:48;;;;;;;;;;;13.20;99.90;;;;;;5016430;28;19925;-75
2022/06/25 05:52:16;;;;;;;;;;;13.20;99.90;;;;;;4999005;28;19921;-74
2022/06/25 05:54:43;;;;;;;;;;;13.20;99.90;;;;;;5014809;28;19921;-75
2022/06/25 05:57:11;;;;;;;;;;;13.20;99.90;;;;;;5015854;28;19932;-75
2022/06/25 05:59:38;;;;;;;;;;;13.30;99.90;;;;;;5014964;28;19928;-74
2022/06/25 06:02:06;;;;;;;;;;;13.30;99.90;;;;;;5015851;28;19928;-75
2022/06/25 06:04:33;;;;;;;;;;;13.40;99.90;;;;;;5015889;28;19921;-75
2022/06/25 06:07:00;;;;;;;;;;;13.50;99.90;;;;;;5014888;28;19932;-75
2022/06/25 06:09:28;;;;;;;;;;;13.60;99.90;;;;;;4998782;28;19921;-75
2022/06/25 06:11:56;;;;;;;;;;;13.70;99.90;;;;;;4998570;28;19921;-75
2022/06/25 06:14:27;;;;;;;;;;;13.80;99.90;;;;;;5030394;28;20272;-75
2022/06/25 06:16:56;;;;;;;;;;;13.80;99.90;;;;;;5035327;28;19921;-75
2022/06/25 06:19:24;;;;;;;;;;;13.10;99.90;;;;;;5035403;28;19921;-75
2022/06/25 06:21:51;;;;;;;;;;;13.80;99.90;;;;;;5034115;28;19921;-75
2022/06/25 06:24:18;;;;;;;;;;;13.80;99.90;;;;;;5035256;28;19921;-74
2022/06/25 06:26:46;;;;;;;;;;;13.80;99.90;;;;;;5033136;28;20275;-75
2022/06/25 06:29:13;;;;;;;;;;;13.80;99.90;;;;;;5035178;28;20363;-76
2022/06/25 06:31:44;;;;;;;;;;;13.70;99.90;;;;;;5035574;28;19920;-75
2022/06/25 06:34:11;;;;;;;;;;;13.70;99.90;;;;;;5034187;28;19932;-75
2022/06/25 06:36:38;;;;;;;;;;;13.70;99.90;;;;;;5035021;28;19921;-75
2022/06/25 06:39:06;;;;;;;;;;;13.70;99.90;;;;;;5034941;28;20367;-75
2022/06/25 06:41:33;;;;;;;;;;;13.80;99.90;;;;;;5033507;28;19921;-74
2022/06/25 06:44:01;;;;;;;;;;;14.10;99.90;;;;;;5035111;28;19921;-75
2022/06/25 06:46:28;;;;;;;;;;;13.70;99.90;;;;;;5033776;28;19930;-75
2022/06/25 06:48:56;;;;;;;;;;;13.70;99.90;;;;;;5034960;28;20271;-75
2022/06/25 06:51:23;;;;;;;;;;;13.70;99.90;;;;;;5035023;28;19921;-75
2022/06/25 06:53:50;;;;;;;;;;;13.30;99.90;;;;;;5033700;28;19921;-75
2022/06/25 06:56:18;;;;;;;;;;;13.70;99.90;;;;;;5034855;28;19928;-75
2022/06/25 06:58:45;;;;;;;;;;;13.70;99.90;;;;;;5033907;28;19940;-75
2022/06/25 07:01:13;;;;;;;;;;;13.70;99.90;;;;;;5033670;28;20351;-75
2022/06/25 07:03:41;;;;;;;;;;;13.50;99.90;;;;;;5034983;28;19930;-75
2022/06/25 07:06:08;;;;;;;;;;;13.80;99.90;;;;;;5034018;28;19920;-75
2022/06/25 07:08:36;;;;;;;;;;;13.80;99.90;;;;;;5034231;28;19921;-75
2022/06/25 07:11:28;;;;;;;;;;;13.90;99.90;;;;;;5017549;28;19943;-75
2022/06/25 07:13:51;;;;;;;;;;;13.90;99.90;;;;;;5019984;28;20348;-75
2022/06/25 07:16:19;;;;;;;;;;;14.00;99.90;;;;;;5015307;28;19932;-75
2022/06/25 07:18:46;;;;;;;;;;;14.10;99.90;;;;;;5015301;28;19921;-75
2022/06/25 07:21:14;;;;;;;;;;;14.10;99.90;;;;;;4980603;28;19921;-75
2022/06/25 07:23:42;;;;;;;;;;;14.10;99.90;;;;;;5015444;28;19921;-75
2022/06/25 07:26:09;;;;;;;;;;;14.20;99.90;;;;;;5014822;28;19932;-75
2022/06/25 07:28:37;;;;;;;;;;;14.30;99.90;;;;;;5014886;28;19933;-75
2022/06/25 07:31:04;;;;;;;;;;;14.40;99.90;;;;;;5015011;28;19926;-75
2022/06/25 07:33:32;;;;;;;;;;;14.50;99.90;;;;;;4996930;28;19921;-74
2022/06/25 07:35:59;;;;;;;;;;;14.70;99.90;;;;;;4997531;28;19921;-74
2022/06/25 07:38:27;;;;;;;;;;;14.80;99.90;;;;;;4980985;28;20364;-74
2022/06/25 07:40:54;;;;;;;;;;;15.10;99.90;;;;;;5013215;28;19928;-73
2022/06/25 07:43:22;;;;;;;;;;;15.00;99.90;;;;;;5014496;28;19933;-73
2022/06/25 07:45:49;;;;;;;;;;;15.00;99.90;;;;;;5014137;28;20405;-73
2022/06/25 07:48:17;;;;;;;;;;;15.10;99.90;;;;;;5013202;28;20344;-74
2022/06/25 07:53:30;;;;;;;;;;;15.20;99.90;;;;;;5014059;28;20268;-75
2022/06/25 07:55:57;;;;;;;;;;;15.30;99.90;;;;;;5000592;28;20295;-75
2022/06/25 07:58:25;;;;;;;;;;;15.40;99.90;;;;;;5000720;28;19932;-74
2022/06/25 08:00:53;;;;;;;;;;;15.60;99.90;;;;;;5016706;28;19937;-74
2022/06/25 08:03:20;;;;;;;;;;;16.40;99.90;;;;;;5017769;28;19928;-73
2022/06/25 08:05:48;;;;;;;;;;;15.70;99.90;;;;;;5017724;28;19929;-73
2022/06/25 08:08:15;;;;;;;;;;;15.80;99.90;;;;;;5016495;28;19922;-73
2022/06/25 08:10:42;;;;;;;;;;;15.80;99.90;;;;;;5017561;28;19940;-74
2022/06/25 08:13:10;;;;;;;;;;;15.80;99.90;;;;;;5011648;28;19931;-74
2022/06/25 08:15:37;;;;;;;;;;;15.90;99.90;;;;;;5037265;28;19932;-74
2022/06/25 08:18:04;;;;;;;;;;;15.90;99.90;;;;;;5037280;28;19928;-73
2022/06/25 08:20:32;;;;;;;;;;;16.00;99.90;;;;;;5036450;28;20340;-73
2022/06/25 08:22:59;;;;;;;;;;;16.10;99.90;;;;;;5037611;28;19931;-74
2022/06/25 08:25:27;;;;;;;;;;;16.20;99.90;;;;;;5036848;28;19925;-74
2022/06/25 08:27:54;;;;;;;;;;;16.30;99.90;;;;;;5035451;28;19936;-74
2022/06/25 08:30:22;;;;;;;;;;;16.30;99.90;;;;;;5037312;28;19921;-74
2022/06/25 08:32:50;;;;;;;;;;;16.40;99.90;;;;;;5037447;28;19940;-74
2022/06/25 08:35:17;;;;;;;;;;;16.30;99.90;;;;;;5037293;28;19928;-74
2022/06/25 08:37:51;;;;;;;;;;;16.60;99.90;;;;;;5037109;28;19920;-74
2022/06/25 08:40:19;;;;;;;;;;;16.60;99.90;;;;;;5036003;28;19928;-74
2022/06/25 08:42:48;;;;;;;;;;;16.60;99.90;;;;;;5036519;28;19921;-74
2022/06/25 08:45:17;;;;;;;;;;;16.60;99.90;;;;;;5036370;28;19921;-74
2022/06/25 08:47:47;;;;;;;;;;;16.50;99.90;;;;;;5036074;28;20248;-74
2022/06/25 08:50:16;;;;;;;;;;;16.50;99.90;;;;;;5036872;28;19921;-74
2022/06/25 08:52:50;;;;;;;;;;;16.00;99.90;;;;;;5036924;28;19921;-74
2022/06/25 08:55:25;;;;;;;;;;;16.30;99.90;;;;;;5044441;28;19925;-77
2022/06/25 08:57:55;;;;;;;;;;;16.20;99.90;;;;;;5041117;28;20340;-73
2022/06/25 09:00:22;;;;;;;;;;;16.20;99.90;;;;;;5049602;28;19932;-76
2022/06/25 09:02:51;;;;;;;;;;;16.40;99.90;;;;;;5037570;28;19924;-75
2022/06/25 09:05:27;;;;;;;;;;;16.30;99.50;;;;;;5054984;28;19924;-76
2022/06/25 09:07:56;;;;;;;;;;;16.40;98.50;;;;;;5055630;28;19931;-76
2022/06/25 09:10:25;;;;;;;;;;;16.60;99.20;;;;;;5056380;28;19928;-76
2022/06/25 09:12:55;;;;;;;;;;;16.80;99.50;;;;;;5049764;28;20255;-76
2022/06/25 09:15:27;;;;;;;;;;;17.00;97.80;;;;;;5018930;28;20340;-76
2022/06/25 09:17:55;;;;;;;;;;;17.10;98.10;;;;;;5019260;28;19921;-76
2022/06/25 09:20:28;;;;;;;;;;;17.20;97.10;;;;;;5018511;28;20240;-76
2022/06/25 09:22:56;;;;;;;;;;;17.30;97.10;;;;;;5019833;28;20336;-76
2022/06/25 09:25:26;;;;;;;;;;;17.30;96.10;;;;;;5036299;28;20315;-75
2022/06/25 09:27:54;;;;;;;;;;;17.30;95.60;;;;;;5017895;28;19921;-76
2022/06/25 09:30:22;;;;;;;;;;;17.10;96.90;;;;;;5036809;28;19928;-76
2022/06/25 09:32:57;;;;;;;;;;;17.00;95.40;;;;;;5036661;28;19925;-76
2022/06/25 09:35:35;;;;;;;;;;;17.00;96.10;;;;;;5018937;28;19932;-76
2022/06/25 09:38:03;;;;;;;;;;;17.10;96.00;;;;;;5035988;28;20348;-75
2022/06/25 09:40:30;;;;;;;;;;;17.20;95.10;;;;;;5017599;28;19931;-75
2022/06/25 09:42:58;;;;;;;;;;;17.50;95.70;;;;;;5018943;28;19932;-76
2022/06/25 09:45:26;;;;;;;;;;;17.80;95.00;;;;;;5035897;28;19921;-76
2022/06/25 09:47:54;;;;;;;;;;;18.00;94.40;;;;;;5034893;28;19928;-76
2022/06/25 09:50:22;;;;;;;;;;;18.20;93.60;;;;;;5035751;28;19932;-76
2022/06/25 09:52:54;;;;;;;;;;;18.40;93.40;;;;;;5035788;28;19920;-75
2022/06/25 09:55:25;;;;;;;;;;;18.60;92.70;;;;;;5018912;28;19946;-75
2022/06/25 09:57:53;;;;;;;;;;;18.70;92.30;;;;;;5002661;28;19928;-76
2022/06/25 10:00:21;;;;;;;;;;;18.80;89.20;;;;;;5034786;28;20371;-75
2022/06/25 10:02:49;;;;;;;;;;;18.80;87.80;;;;;;5035712;28;20267;-76
2022/06/25 10:05:18;;;;;;;;;;;18.90;88.30;;;;;;5018214;28;19921;-76
2022/06/25 10:08:01;;;;;;;;;;;19.10;89.20;;;;;;5017294;28;19921;-76
2022/06/25 10:10:31;;;;;;;;;;;19.30;88.50;;;;;;5035686;28;20275;-76
2022/06/25 10:13:00;;;;;;;;;;;19.40;87.60;;;;;;5034236;28;19921;-76
2022/06/25 10:15:29;;;;;;;;;;;19.40;88.00;;;;;;5018021;28;19928;-76
2022/06/25 10:17:59;;;;;;;;;;;19.20;86.50;;;;;;5035196;28;19921;-76
2022/06/25 10:20:26;;;;;;;;;;;19.00;88.20;;;;;;5034586;28;20395;-76
2022/06/25 10:22:54;;;;;;;;;;;18.80;85.60;;;;;;5018196;28;20275;-76
2022/06/25 10:25:23;;;;;;;;;;;18.50;81.60;;;;;;5035184;28;19921;-76
2022/06/25 10:28:02;;;;;;;;;;;16.20;83.00;;;;;;5034062;28;19925;-76
2022/06/25 10:30:35;;;;;;;;;;;18.60;87.00;;;;;;5035185;28;19928;-76
2022/06/25 10:33:03;;;;;;;;;;;18.70;86.60;;;;;;5034610;28;20260;-76
2022/06/25 10:35:39;;;;;;;;;;;18.80;86.60;;;;;;5018349;28;19932;-76
2022/06/25 10:38:13;;;;;;;;;;;19.30;85.80;;;;;;5035443;28;20351;-76
2022/06/25 10:40:55;;;;;;;;;;;19.30;84.50;;;;;;5034043;28;19925;-74
2022/06/25 10:43:39;;;;;;;;;;;19.40;85.90;;;;;;5018542;28;19944;-73
2022/06/25 10:46:19;;;;;;;;;;;19.40;83.80;;;;;;5035496;28;19928;-76
2022/06/25 10:48:57;;;;;;;;;;;19.30;81.20;;;;;;5035110;28;19928;-76
2022/06/25 10:51:29;;;;;;;;;;;19.10;82.60;;;;;;5018117;28;20280;-76
2022/06/25 10:53:57;;;;;;;;;;;19.00;83.60;;;;;;5017389;28;20296;-76
2022/06/25 10:56:25;;;;;;;;;;;17.30;84.50;;;;;;5034752;28;19921;-76
2022/06/25 10:59:00;;;;;;;;;;;19.40;85.20;;;;;;5035084;28;19928;-76
2022/06/25 11:01:34;;;;;;;;;;;19.70;83.20;;;;;;5017285;28;19925;-74
2022/06/25 11:04:03;;;;;;;;;;;19.90;83.10;;;;;;5018057;28;19928;-76
2022/06/25 11:06:35;;;;;;;;;;;19.90;79.90;;;;;;5033919;28;20174;-76
2022/06/25 11:09:13;;;;;;;;;;;20.00;80.80;;;;;;5034987;28;19928;-76
2022/06/25 11:11:42;;;;;;;;;;;20.00;79.10;;;;;;5035049;28;20355;-76
2022/06/25 11:14:14;;;;;;;;;;;20.20;80.50;;;;;;5033545;28;19921;-76
2022/06/25 11:16:43;;;;;;;;;;;20.40;78.50;;;;;;5017716;28;19924;-76
2022/06/25 11:19:10;;;;;;;;;;;20.50;79.30;;;;;;5034747;28;19921;-76
2022/06/25 11:21:39;;;;;;;;;;;21.60;79.60;;;;;;5033809;28;19928;-76
2022/06/25 11:24:10;;;;;;;;;;;20.70;77.60;;;;;;5017891;28;19921;-76
2022/06/25 11:29:25;;;;;;;;;;;20.80;74.10;;;;;;5037618;28;19928;-74
2022/06/25 11:31:53;;;;;;;;;;;20.90;75.90;;;;;;5038571;28;19921;-74
2022/06/25 11:34:22;;;;;;;;;;;21.10;74.60;;;;;;5037422;28;19920;-74
2022/06/25 11:36:56;;;;;;;;;;;21.20;73.30;;;;;;5038438;28;19921;-74
2022/06/25 11:39:23;;;;;;;;;;;21.30;74.40;;;;;;5021029;28;19921;-75
2022/06/25 11:41:51;;;;;;;;;;;21.40;73.10;;;;;;5037113;28;19932;-74
2022/06/25 11:44:19;;;;;;;;;;;21.40;73.90;;;;;;5021275;28;19921;-74
2022/06/25 11:46:47;;;;;;;;;;;21.40;73.50;;;;;;5037001;28;20355;-74
2022/06/25 11:49:16;;;;;;;;;;;21.30;74.60;;;;;;5038147;28;19921;-75
2022/06/25 11:51:48;;;;;;;;;;;21.30;74.40;;;;;;5038231;28;19920;-74
2022/06/25 11:54:19;;;;;;;;;;;21.10;74.80;;;;;;5037198;28;19928;-74
2022/06/25 11:56:47;;;;;;;;;;;21.00;74.50;;;;;;5038222;28;19920;-74
2022/06/25 11:59:29;;;;;;;;;;;20.90;74.30;;;;;;5020886;28;19921;-74
2022/06/25 12:01:58;;;;;;;;;;;20.90;75.70;;;;;;5037511;28;20279;-74
2022/06/25 12:04:26;;;;;;;;;;;20.90;76.70;;;;;;5038278;28;19921;-75
2022/06/25 12:06:55;;;;;;;;;;;21.00;75.20;;;;;;5036605;28;20271;-75
2022/06/25 12:09:23;;;;;;;;;;;20.40;75.10;;;;;;5037884;28;20252;-74
2022/06/25 12:11:53;;;;;;;;;;;21.10;74.50;;;;;;5020429;28;19921;-75
2022/06/25 12:14:21;;;;;;;;;;;21.10;75.90;;;;;;5036380;28;19928;-75
2022/06/25 12:16:52;;;;;;;;;;;21.10;76.70;;;;;;5020537;28;19928;-75
2022/06/25 12:19:20;;;;;;;;;;;21.00;77.30;;;;;;5037818;28;19928;-75
2022/06/25 12:21:48;;;;;;;;;;;20.90;76.50;;;;;;5002996;28;20271;-74
2022/06/25 12:24:17;;;;;;;;;;;21.20;76.40;;;;;;5020305;28;19932;-72
2022/06/25 12:26:51;;;;;;;;;;;21.30;76.90;;;;;;5036221;28;19921;-72
2022/06/25 12:29:19;;;;;;;;;;;21.50;77.10;;;;;;5037485;28;19936;-74
2022/06/25 12:31:52;;;;;;;;;;;21.50;75.20;;;;;;5036506;28;19932;-75
2022/06/25 12:34:19;;;;;;;;;;;21.60;75.00;;;;;;5036057;28;19921;-75
2022/06/25 12:36:48;;;;;;;;;;;21.60;74.70;;;;;;5036942;28;19920;-76
2022/06/25 12:39:27;;;;;;;;;;;21.70;73.60;;;;;;5019273;28;19928;-75
2022/06/25 12:41:55;;;;;;;;;;;21.90;75.30;;;;;;5035549;28;19923;-75
2022/06/25 12:44:22;;;;;;;;;;;22.10;76.20;;;;;;5036903;28;19925;-76
2022/06/25 12:47:10;;;;;;;;;;;22.20;73.50;;;;;;5018400;28;19921;-76
2022/06/25 12:49:46;;;;;;;;;;;22.20;73.90;;;;;;5036784;28;19921;-77
2022/06/25 12:52:16;;;;;;;;;;;22.10;74.00;;;;;;5036813;28;19929;-76
2022/06/25 12:54:48;;;;;;;;;;;22.00;73.80;;;;;;5035176;28;19921;-76
2022/06/25 12:57:18;;;;;;;;;;;22.00;73.20;;;;;;5036585;28;19928;-76
2022/06/25 12:59:46;;;;;;;;;;;21.90;72.10;;;;;;5035474;28;19928;-76
2022/06/25 13:02:14;;;;;;;;;;;21.80;74.80;;;;;;5036648;28;20354;-75
2022/06/25 13:04:42;;;;;;;;;;;21.80;74.40;;;;;;5036476;28;19921;-75
2022/06/25 13:07:11;;;;;;;;;;;21.70;72.80;;;;;;5034890;28;19928;-72
2022/06/25 13:09:39;;;;;;;;;;;21.80;73.00;;;;;;5036350;28;19928;-76
2022/06/25 13:12:23;;;;;;;;;;;21.90;73.20;;;;;;5021623;28;20278;-75
2022/06/25 13:14:50;;;;;;;;;;;22.00;72.80;;;;;;5035232;28;19928;-75
2022/06/25 13:17:18;;;;;;;;;;;22.10;72.60;;;;;;5036331;28;19921;-76
2022/06/25 13:19:46;;;;;;;;;;;22.30;72.50;;;;;;5018073;28;19921;-74
2022/06/25 13:22:13;;;;;;;;;;;22.10;71.80;;;;;;5036483;28;19925;-73
2022/06/25 13:24:40;;;;;;;;;;;22.60;72.60;;;;;;5036364;28;19921;-73
2022/06/25 13:27:08;;;;;;;;;;;23.70;72.50;;;;;;5035027;28;20267;-77
2022/06/25 13:29:35;;;;;;;;;;;22.40;72.00;;;;;;5036050;28;20383;-77
2022/06/25 13:32:03;;;;;;;;;;;22.50;72.10;;;;;;5036362;28;19924;-74
2022/06/25 13:34:31;;;;;;;;;;;23.10;71.20;;;;;;5034230;28;19932;-75
2022/06/25 13:36:58;;;;;;;;;;;24.10;70.50;;;;;;5020922;28;19932;-77
2022/06/25 13:39:26;;;;;;;;;;;24.40;69.00;;;;;;5017424;28;19921;-76
2022/06/25 13:41:53;;;;;;;;;;;24.10;68.90;;;;;;5032280;28;19921;-74
2022/06/25 13:44:21;;;;;;;;;;;24.20;69.40;;;;;;5036568;28;19921;-73
2022/06/25 13:46:48;;;;;;;;;;;24.20;67.40;;;;;;5017819;28;19928;-73
2022/06/25 13:49:15;;;;;;;;;;;24.80;68.50;;;;;;5002931;28;19932;-73
2022/06/25 13:51:43;;;;;;;;;;;25.40;67.70;;;;;;5035847;28;19944;-76
2022/06/25 13:54:10;;;;;;;;;;;26.40;67.40;;;;;;5008981;28;19928;-73
2022/06/25 13:56:38;;;;;;;;;;;27.20;64.20;;;;;;5016495;28;19921;-76
2022/06/25 13:59:06;;;;;;;;;;;26.50;62.80;;;;;;5035110;28;20343;-77
2022/06/25 14:01:36;;;;;;;;;;;24.60;60.70;;;;;;5031225;28;19928;-77
2022/06/25 14:04:07;;;;;;;;;;;27.60;64.60;;;;;;4998195;28;19932;-78
2022/06/25 14:06:39;;;;;;;;;;;31.30;64.40;;;;;;5014269;28;20379;-77
2022/06/25 14:09:06;;;;;;;;;;;28.10;60.90;;;;;;5015525;28;19929;-76
2022/06/25 14:11:34;;;;;;;;;;;27.30;60.30;;;;;;4998779;28;20275;-77
2022/06/25 14:14:01;;;;;;;;;;;27.40;61.10;;;;;;5016709;28;19921;-77
2022/06/25 14:16:28;;;;;;;;;;;27.50;60.40;;;;;;5015686;28;19922;-77
2022/06/25 14:18:56;;;;;;;;;;;27.40;60.10;;;;;;4998164;28;19928;-78
2022/06/25 14:21:29;;;;;;;;;;;27.60;58.80;;;;;;5013669;28;20375;-77
2022/06/25 14:24:01;;;;;;;;;;;27.90;59.00;;;;;;5016186;28;20340;-78
2022/06/25 14:26:29;;;;;;;;;;;30.00;59.20;;;;;;5014584;28;19952;-78
2022/06/25 14:28:57;;;;;;;;;;;29.30;58.30;;;;;;5015357;28;19921;-78
2022/06/25 14:31:25;;;;;;;;;;;28.60;58.50;;;;;;5015166;28;19928;-77
2022/06/25 14:33:53;;;;;;;;;;;28.10;60.60;;;;;;4980795;28;19925;-75
2022/06/25 14:44:45;;;;;;;;;;;27.30;58.00;;;;;;5015865;28;19928;-75
2022/06/25 14:47:12;;;;;;;;;;;26.30;60.20;;;;;;4996351;28;20291;-76
2022/06/25 14:49:40;;;;;;;;;;;25.40;61.60;;;;;;5015333;28;19922;-74
2022/06/25 14:52:07;;;;;;;;;;;25.20;61.80;;;;;;5015201;28;19929;-75
2022/06/25 14:54:35;;;;;;;;;;;26.10;61.30;;;;;;4980861;28;19928;-74